Time;durP1;ratioP1;P1;durP2;ratioP2;P2;SDS_P1;SDS_P2;PMS_P1;PMS_P2;Temp;Humidity;BMP_temperature;BMP_pressure;BME280_temperature;BME280_humidity;BME280_pressure;Samples;Min_cycle;Max_cycle;Signal;HPM_P1;HPM_P2
2023/04/11 00:00:34;;;;;;;1.60;1.60;;;;;;;;;;5063752;28;20902;-56
2023/04/11 00:03:00;;;;;;;1.60;1.60;;;;;;;;;;5057764;28;21741;-56
2023/04/11 00:05:32;;;;;;;1.70;1.70;;;;;;;;;;5059342;28;20187;-56
2023/04/11 00:07:58;;;;;;;1.63;1.63;;;;;;;;;;5057279;28;20562;-56
2023/04/11 00:10:24;;;;;;;1.50;1.50;;;;;;;;;;5058548;28;20239;-57
2023/04/11 00:12:51;;;;;;;1.70;1.70;;;;;;;;;;5057746;28;20223;-56
2023/04/11 00:15:18;;;;;;;1.50;1.50;;;;;;;;;;5059816;28;20200;-56
2023/04/11 00:17:44;;;;;;;1.30;1.30;;;;;;;;;;5051280;28;20222;-57
2023/04/11 00:20:11;;;;;;;1.50;1.50;;;;;;;;;;5058995;28;20188;-56
2023/04/11 00:22:37;;;;;;;1.40;1.40;;;;;;;;;;5059433;28;20195;-56
2023/04/11 00:25:03;;;;;;;1.60;1.60;;;;;;;;;;5060209;28;20189;-57
2023/04/11 00:27:29;;;;;;;1.50;1.50;;;;;;;;;;5055923;28;20329;-56
2023/04/11 00:29:56;;;;;;;1.77;1.70;;;;;;;;;;5060405;28;20918;-56
2023/04/11 00:32:22;;;;;;;1.50;1.50;;;;;;;;;;5057495;28;20428;-57
2023/04/11 00:34:48;;;;;;;1.40;1.40;;;;;;;;;;5037893;28;20238;-57
2023/04/11 00:37:14;;;;;;;1.50;1.50;;;;;;;;;;5058541;28;20180;-56
2023/04/11 00:39:40;;;;;;;1.70;1.70;;;;;;;;;;5059967;28;20188;-56
2023/04/11 00:42:06;;;;;;;1.40;1.40;;;;;;;;;;5063507;28;20653;-57
2023/04/11 00:44:33;;;;;;;1.60;1.60;;;;;;;;;;5059453;28;20199;-57
2023/04/11 00:46:59;;;;;;;1.80;1.70;;;;;;;;;;5054498;28;20184;-57
2023/04/11 00:49:25;;;;;;;1.60;1.60;;;;;;;;;;5057469;28;20270;-57
2023/04/11 00:51:52;;;;;;;1.50;1.50;;;;;;;;;;5056244;28;20195;-57
2023/04/11 00:54:18;;;;;;;1.50;1.50;;;;;;;;;;5057642;28;20212;-56
2023/04/11 00:56:44;;;;;;;1.60;1.60;;;;;;;;;;5057077;28;20188;-56
2023/04/11 00:59:10;;;;;;;1.50;1.50;;;;;;;;;;5047821;28;20184;-57
2023/04/11 01:01:37;;;;;;;1.50;1.50;;;;;;;;;;5071666;28;20191;-57
2023/04/11 01:04:03;;;;;;;1.50;1.50;;;;;;;;;;5056159;28;20632;-57
2023/04/11 01:06:29;;;;;;;1.40;1.40;;;;;;;;;;5056403;28;20191;-57
2023/04/11 01:08:55;;;;;;;1.70;1.70;;;;;;;;;;5058341;28;20234;-56
2023/04/11 01:11:21;;;;;;;1.40;1.40;;;;;;;;;;5057340;28;20191;-56
2023/04/11 01:13:47;;;;;;;1.70;1.70;;;;;;;;;;5058562;28;20252;-57
2023/04/11 01:16:14;;;;;;;1.80;1.70;;;;;;;;;;5059609;28;20303;-56
2023/04/11 01:18:40;;;;;;;2.00;1.90;;;;;;;;;;5057413;28;20188;-57
2023/04/11 01:21:06;;;;;;;1.60;1.60;;;;;;;;;;5054945;28;20192;-56
2023/04/11 01:23:33;;;;;;;1.50;1.50;;;;;;;;;;5070361;28;20192;-57
2023/04/11 01:25:59;;;;;;;1.90;1.80;;;;;;;;;;5058596;28;20567;-57
2023/04/11 01:28:25;;;;;;;1.50;1.50;;;;;;;;;;5051792;28;20230;-56
2023/04/11 01:30:51;;;;;;;1.60;1.60;;;;;;;;;;5057911;28;20191;-56
2023/04/11 01:33:16;;;;;;;1.50;1.50;;;;;;;;;;5057645;28;20936;-56
2023/04/11 01:35:42;;;;;;;1.77;1.70;;;;;;;;;;5057873;28;20180;-56
2023/04/11 01:38:08;;;;;;;1.80;1.70;;;;;;;;;;5061348;28;20227;-56
2023/04/11 01:40:34;;;;;;;1.70;1.70;;;;;;;;;;5054800;28;20609;-56
2023/04/11 01:43:01;;;;;;;1.60;1.60;;;;;;;;;;5055149;28;20190;-56
2023/04/11 01:45:28;;;;;;;1.60;1.60;;;;;;;;;;5058672;28;20218;-56
2023/04/11 01:47:54;;;;;;;1.90;1.80;;;;;;;;;;5058732;28;20674;-56
2023/04/11 01:50:20;;;;;;;1.50;1.50;;;;;;;;;;5058804;28;20267;-55
2023/04/11 01:52:47;;;;;;;1.83;1.73;;;;;;;;;;5054880;28;20202;-56
2023/04/11 01:55:13;;;;;;;1.60;1.60;;;;;;;;;;5058579;28;20187;-56
2023/04/11 01:57:39;;;;;;;1.60;1.60;;;;;;;;;;5056719;28;20552;-56
2023/04/11 02:00:05;;;;;;;1.60;1.60;;;;;;;;;;5057659;28;20541;-55
2023/04/11 02:02:31;;;;;;;1.83;1.73;;;;;;;;;;5054203;28;20696;-55
2023/04/11 02:04:57;;;;;;;1.40;1.40;;;;;;;;;;5054694;28;20207;-55
2023/04/11 02:07:23;;;;;;;1.50;1.50;;;;;;;;;;5056131;28;20234;-56
2023/04/11 02:09:49;;;;;;;1.40;1.40;;;;;;;;;;5056514;28;20228;-56
2023/04/11 02:12:15;;;;;;;1.20;1.20;;;;;;;;;;5054748;28;20184;-56
2023/04/11 02:14:56;;;;;;;1.30;1.30;;;;;;;;;;5073643;27;20961;-55
2023/04/11 02:17:24;;;;;;;1.80;1.73;;;;;;;;;;5060067;28;20268;-56
2023/04/11 02:19:50;;;;;;;1.87;1.77;;;;;;;;;;5058125;28;20246;-55
2023/04/11 02:22:16;;;;;;;1.60;1.60;;;;;;;;;;5051129;28;20192;-56
2023/04/11 02:24:42;;;;;;;1.60;1.60;;;;;;;;;;5055414;28;20690;-55
2023/04/11 02:27:08;;;;;;;1.07;1.07;;;;;;;;;;5061180;28;20269;-55
2023/04/11 02:29:34;;;;;;;1.00;1.00;;;;;;;;;;5059090;28;20602;-55
2023/04/11 02:32:00;;;;;;;0.90;0.90;;;;;;;;;;5057247;28;20678;-55
2023/04/11 02:34:26;;;;;;;1.00;1.00;;;;;;;;;;5060376;28;20223;-60
2023/04/11 02:36:52;;;;;;;1.10;1.10;;;;;;;;;;5059792;28;20191;-55
2023/04/11 02:39:22;;;;;;;1.10;1.10;;;;;;;;;;5060782;28;20557;-55
2023/04/11 02:41:48;;;;;;;1.50;1.50;;;;;;;;;;5057254;28;20651;-54
2023/04/11 02:44:14;;;;;;;1.50;1.50;;;;;;;;;;5060090;28;20511;-54
2023/04/11 02:46:40;;;;;;;1.40;1.40;;;;;;;;;;5060779;28;20188;-54
2023/04/11 02:49:06;;;;;;;1.50;1.50;;;;;;;;;;5059209;28;20599;-57
2023/04/11 02:51:32;;;;;;;1.50;1.50;;;;;;;;;;5059556;28;20436;-54
2023/04/11 02:53:58;;;;;;;1.43;1.43;;;;;;;;;;5057349;28;20220;-54
2023/04/11 02:56:24;;;;;;;1.47;1.47;;;;;;;;;;5059277;28;20702;-56
2023/04/11 02:58:51;;;;;;;1.40;1.40;;;;;;;;;;5058338;28;20564;-57
2023/04/11 03:01:17;;;;;;;1.50;1.50;;;;;;;;;;5058836;28;20605;-56
2023/04/11 03:03:43;;;;;;;1.20;1.20;;;;;;;;;;5054343;28;20253;-55
2023/04/11 03:06:09;;;;;;;1.40;1.40;;;;;;;;;;5059878;28;20192;-55
2023/04/11 03:08:36;;;;;;;1.50;1.50;;;;;;;;;;5061975;28;20566;-60
2023/04/11 03:11:02;;;;;;;1.40;1.40;;;;;;;;;;5043853;28;20253;-56
2023/04/11 03:13:28;;;;;;;1.60;1.60;;;;;;;;;;5048663;28;20236;-55
2023/04/11 03:15:54;;;;;;;1.73;1.70;;;;;;;;;;5040341;28;20657;-55
2023/04/11 03:18:21;;;;;;;1.40;1.40;;;;;;;;;;5039278;28;20193;-55
2023/04/11 03:20:47;;;;;;;1.30;1.30;;;;;;;;;;5041532;28;20266;-56
2023/04/11 03:23:13;;;;;;;1.20;1.20;;;;;;;;;;5039966;28;20220;-55
2023/04/11 03:25:39;;;;;;;1.00;1.00;;;;;;;;;;5033017;28;20223;-55
2023/04/11 03:28:05;;;;;;;0.90;0.90;;;;;;;;;;5028848;28;20189;-58
2023/04/11 03:30:31;;;;;;;1.10;1.10;;;;;;;;;;5027253;28;20728;-55
2023/04/11 03:32:59;;;;;;;1.00;1.00;;;;;;;;;;5024933;28;20268;-55
2023/04/11 03:35:26;;;;;;;0.90;0.90;;;;;;;;;;5029270;28;20189;-55
2023/04/11 03:37:51;;;;;;;0.97;0.97;;;;;;;;;;5026234;28;20568;-55
2023/04/11 03:40:17;;;;;;;1.00;1.00;;;;;;;;;;5024047;28;20295;-55
2023/04/11 03:42:45;;;;;;;1.00;1.00;;;;;;;;;;5027724;28;20302;-55
2023/04/11 03:45:11;;;;;;;1.00;1.00;;;;;;;;;;5025584;28;20193;-56
2023/04/11 03:47:37;;;;;;;1.43;1.43;;;;;;;;;;5026588;28;20272;-56
2023/04/11 03:50:03;;;;;;;1.40;1.40;;;;;;;;;;5027137;28;20195;-55
2023/04/11 03:52:29;;;;;;;1.10;1.10;;;;;;;;;;5026662;28;20195;-55
2023/04/11 03:54:55;;;;;;;1.13;1.13;;;;;;;;;;5027436;28;20189;-56
2023/04/11 03:57:21;;;;;;;1.00;1.00;;;;;;;;;;5022907;28;20219;-56
2023/04/11 03:59:47;;;;;;;0.97;0.97;;;;;;;;;;5026748;28;20196;-55
2023/04/11 04:02:14;;;;;;;0.90;0.90;;;;;;;;;;5028050;28;20189;-55
2023/04/11 04:04:42;;;;;;;1.00;1.00;;;;;;;;;;5027083;28;20239;-56
2023/04/11 04:07:08;;;;;;;0.90;0.90;;;;;;;;;;5024493;28;20200;-56
2023/04/11 04:09:34;;;;;;;0.90;0.90;;;;;;;;;;5028111;28;20185;-55
2023/04/11 04:12:00;;;;;;;1.00;1.00;;;;;;;;;;5025122;28;20192;-56
2023/04/11 04:14:26;;;;;;;1.00;1.00;;;;;;;;;;5034975;28;20231;-56
2023/04/11 04:16:52;;;;;;;0.90;0.90;;;;;;;;;;5044304;28;20193;-55
2023/04/11 04:19:18;;;;;;;1.00;1.00;;;;;;;;;;5045080;28;20192;-56
2023/04/11 04:21:45;;;;;;;0.90;0.90;;;;;;;;;;5044814;28;20290;-55
2023/04/11 04:24:11;;;;;;;0.90;0.90;;;;;;;;;;5044145;28;20200;-55
2023/04/11 04:26:38;;;;;;;0.90;0.90;;;;;;;;;;5043000;28;20196;-56
2023/04/11 04:29:04;;;;;;;0.90;0.90;;;;;;;;;;5045201;28;20220;-55
2023/04/11 04:31:32;;;;;;;0.97;0.97;;;;;;;;;;5044672;28;20196;-56
2023/04/11 04:34:01;;;;;;;1.00;1.00;;;;;;;;;;5043073;28;20684;-55
2023/04/11 04:36:27;;;;;;;1.00;1.00;;;;;;;;;;5042966;28;20228;-56
2023/04/11 04:38:56;;;;;;;0.90;0.90;;;;;;;;;;5047647;28;20215;-56
2023/04/11 04:41:22;;;;;;;1.00;1.00;;;;;;;;;;5046832;28;20196;-56
2023/04/11 04:43:48;;;;;;;1.00;1.00;;;;;;;;;;5044991;28;20242;-55
2023/04/11 04:46:15;;;;;;;0.90;0.90;;;;;;;;;;5046471;28;20300;-56
2023/04/11 04:48:41;;;;;;;1.03;1.03;;;;;;;;;;5038672;28;20238;-56
2023/04/11 04:51:07;;;;;;;0.90;0.90;;;;;;;;;;5044957;28;20275;-57
2023/04/11 04:53:33;;;;;;;1.10;1.10;;;;;;;;;;5043591;28;20216;-56
2023/04/11 04:56:00;;;;;;;1.10;1.10;;;;;;;;;;5043071;28;20250;-56
2023/04/11 04:58:26;;;;;;;1.03;1.03;;;;;;;;;;5041751;28;20196;-56
2023/04/11 05:00:56;;;;;;;1.00;1.00;;;;;;;;;;5044516;28;20242;-55
2023/04/11 05:03:22;;;;;;;0.90;0.90;;;;;;;;;;5045486;28;20526;-56
2023/04/11 05:05:48;;;;;;;0.90;0.90;;;;;;;;;;5042450;28;20197;-56
2023/04/11 05:08:15;;;;;;;0.90;0.90;;;;;;;;;;5046415;28;20227;-56
2023/04/11 05:10:41;;;;;;;0.90;0.90;;;;;;;;;;5045545;28;20536;-56
2023/04/11 05:13:07;;;;;;;1.00;1.00;;;;;;;;;;5036694;28;20243;-57
2023/04/11 05:15:33;;;;;;;1.00;1.00;;;;;;;;;;5019400;28;20926;-56
2023/04/11 05:17:59;;;;;;;0.83;0.83;;;;;;;;;;5023060;28;20677;-56
2023/04/11 05:20:28;;;;;;;0.90;0.90;;;;;;;;;;5025087;28;20181;-55
2023/04/11 05:22:54;;;;;;;0.97;0.97;;;;;;;;;;5024445;28;20202;-55
2023/04/11 05:25:20;;;;;;;1.03;1.03;;;;;;;;;;5024603;28;20535;-55
2023/04/11 05:27:46;;;;;;;1.00;1.00;;;;;;;;;;5023245;28;20192;-56
2023/04/11 05:30:12;;;;;;;0.90;0.90;;;;;;;;;;5025848;28;20235;-55
2023/04/11 05:32:38;;;;;;;1.00;1.00;;;;;;;;;;5024053;28;20197;-56
2023/04/11 05:35:04;;;;;;;0.90;0.90;;;;;;;;;;5024927;28;20235;-55
2023/04/11 05:37:31;;;;;;;0.90;0.90;;;;;;;;;;5023851;28;20194;-56
2023/04/11 05:39:57;;;;;;;1.00;1.00;;;;;;;;;;5025987;28;20270;-56
2023/04/11 05:42:23;;;;;;;0.90;0.90;;;;;;;;;;5025630;28;20239;-55
2023/04/11 05:44:49;;;;;;;1.00;1.00;;;;;;;;;;5023033;28;20193;-56
2023/04/11 05:47:15;;;;;;;0.90;0.90;;;;;;;;;;5024623;28;20200;-55
2023/04/11 05:49:41;;;;;;;0.90;0.90;;;;;;;;;;5024771;28;20185;-55
2023/04/11 05:52:07;;;;;;;1.03;1.03;;;;;;;;;;5007281;28;20207;-56
2023/04/11 05:54:34;;;;;;;0.90;0.90;;;;;;;;;;5016422;28;20251;-56
2023/04/11 05:57:03;;;;;;;1.10;1.10;;;;;;;;;;5023946;28;20239;-55
2023/04/11 05:59:33;;;;;;;1.00;1.00;;;;;;;;;;5021526;28;20192;-57
2023/04/11 06:01:59;;;;;;;0.93;0.93;;;;;;;;;;5025627;28;20193;-55
2023/04/11 06:04:25;;;;;;;0.90;0.90;;;;;;;;;;5026006;28;20185;-55
2023/04/11 06:06:52;;;;;;;0.80;0.80;;;;;;;;;;5024553;28;20266;-56
2023/04/11 06:09:18;;;;;;;0.90;0.90;;;;;;;;;;5021895;28;20266;-55
2023/04/11 06:11:44;;;;;;;0.90;0.90;;;;;;;;;;5021244;28;20670;-55
2023/04/11 06:14:10;;;;;;;0.90;0.90;;;;;;;;;;5007594;28;20786;-56
2023/04/11 06:16:37;;;;;;;1.00;1.00;;;;;;;;;;5025776;28;20208;-57
2023/04/11 06:19:03;;;;;;;0.80;0.80;;;;;;;;;;5024290;28;20217;-56
2023/04/11 06:21:31;;;;;;;1.00;1.00;;;;;;;;;;5022430;28;20228;-55
2023/04/11 06:23:57;;;;;;;1.00;1.00;;;;;;;;;;5024425;28;20267;-56
2023/04/11 06:26:22;;;;;;;0.90;0.90;;;;;;;;;;5021227;28;20843;-61
2023/04/11 06:28:50;;;;;;;1.00;1.00;;;;;;;;;;5025125;28;20201;-56
2023/04/11 06:31:16;;;;;;;0.80;0.80;;;;;;;;;;5024309;28;20201;-61
2023/04/11 06:33:41;;;;;;;0.80;0.80;;;;;;;;;;5023735;28;20208;-56
2023/04/11 06:36:08;;;;;;;1.07;1.07;;;;;;;;;;5024255;28;20201;-56
2023/04/11 06:38:35;;;;;;;1.00;1.00;;;;;;;;;;5024651;28;20833;-59
2023/04/11 06:41:01;;;;;;;0.90;0.90;;;;;;;;;;5022798;28;20196;-57
2023/04/11 06:43:27;;;;;;;0.90;0.90;;;;;;;;;;5022175;28;20280;-60
2023/04/11 06:45:53;;;;;;;0.80;0.80;;;;;;;;;;5006246;28;20233;-56
2023/04/11 06:48:20;;;;;;;0.80;0.80;;;;;;;;;;5023436;28;20189;-56
2023/04/11 06:50:47;;;;;;;1.00;1.00;;;;;;;;;;5025409;28;20193;-56
2023/04/11 06:53:13;;;;;;;0.90;0.90;;;;;;;;;;5024885;28;20563;-57
2023/04/11 06:55:39;;;;;;;0.90;0.90;;;;;;;;;;5025856;28;20207;-56
2023/04/11 06:58:05;;;;;;;0.97;0.97;;;;;;;;;;5026948;28;20193;-56
2023/04/11 07:00:31;;;;;;;0.97;0.97;;;;;;;;;;5026063;28;20189;-57
2023/04/11 07:02:58;;;;;;;0.90;0.90;;;;;;;;;;5030028;28;20667;-57
2023/04/11 07:05:25;;;;;;;0.90;0.90;;;;;;;;;;5028306;28;20570;-56
2023/04/11 07:07:51;;;;;;;0.90;0.90;;;;;;;;;;5028655;28;20538;-54
2023/04/11 07:10:17;;;;;;;0.90;0.90;;;;;;;;;;5027027;28;20193;-55
2023/04/11 07:12:43;;;;;;;1.00;1.00;;;;;;;;;;5028245;28;20193;-57
2023/04/11 07:15:09;;;;;;;0.87;0.87;;;;;;;;;;5029880;28;20216;-56
2023/04/11 07:17:35;;;;;;;0.97;0.97;;;;;;;;;;5026981;28;20197;-56
2023/04/11 07:20:02;;;;;;;0.90;0.90;;;;;;;;;;5022653;28;20193;-56
2023/04/11 07:22:29;;;;;;;0.97;0.97;;;;;;;;;;5025805;28;20184;-56
2023/04/11 07:24:56;;;;;;;0.80;0.80;;;;;;;;;;5027655;28;20192;-56
2023/04/11 07:27:23;;;;;;;1.00;1.00;;;;;;;;;;5026839;28;20227;-56
2023/04/11 07:29:49;;;;;;;0.87;0.87;;;;;;;;;;5025947;28;20219;-56
2023/04/11 07:32:15;;;;;;;0.90;0.90;;;;;;;;;;5022331;28;20188;-56
2023/04/11 07:34:41;;;;;;;1.00;1.00;;;;;;;;;;5023905;28;20247;-56
2023/04/11 07:37:07;;;;;;;1.00;1.00;;;;;;;;;;5027348;28;20721;-56
2023/04/11 07:39:33;;;;;;;0.90;0.90;;;;;;;;;;5000715;28;20189;-57
2023/04/11 07:42:00;;;;;;;0.90;0.90;;;;;;;;;;5032270;28;20200;-56
2023/04/11 07:44:26;;;;;;;0.80;0.80;;;;;;;;;;5027996;28;20194;-56
2023/04/11 07:46:52;;;;;;;0.90;0.90;;;;;;;;;;5024597;28;20546;-56
2023/04/11 07:49:18;;;;;;;0.90;0.90;;;;;;;;;;5021120;28;20268;-56
2023/04/11 07:51:44;;;;;;;0.93;0.93;;;;;;;;;;5025103;28;20204;-56
2023/04/11 07:54:11;;;;;;;0.70;0.70;;;;;;;;;;5024161;28;20212;-56
2023/04/11 07:56:37;;;;;;;0.90;0.90;;;;;;;;;;5024696;28;20193;-56
2023/04/11 07:59:03;;;;;;;0.90;0.90;;;;;;;;;;5025415;28;20665;-57
2023/04/11 08:01:30;;;;;;;0.80;0.80;;;;;;;;;;5025647;28;20181;-56
2023/04/11 08:03:56;;;;;;;0.90;0.90;;;;;;;;;;5011326;28;20672;-56
2023/04/11 08:06:22;;;;;;;0.73;0.73;;;;;;;;;;5017296;28;20193;-56
2023/04/11 08:08:48;;;;;;;1.00;1.00;;;;;;;;;;5024705;28;20201;-56
2023/04/11 08:11:14;;;;;;;0.70;0.70;;;;;;;;;;5024970;28;20276;-57
2023/04/11 08:13:40;;;;;;;0.90;0.90;;;;;;;;;;5023021;28;20237;-56
2023/04/11 08:16:08;;;;;;;0.90;0.90;;;;;;;;;;5026955;28;20196;-56
2023/04/11 08:18:34;;;;;;;1.00;1.00;;;;;;;;;;5024701;28;20193;-56
2023/04/11 08:21:00;;;;;;;0.70;0.70;;;;;;;;;;5023070;28;20197;-56
2023/04/11 08:23:27;;;;;;;0.70;0.70;;;;;;;;;;5025279;28;20193;-57
2023/04/11 08:25:53;;;;;;;0.90;0.90;;;;;;;;;;5027047;28;20718;-56
2023/04/11 08:28:19;;;;;;;0.70;0.70;;;;;;;;;;5028354;28;20188;-56
2023/04/11 08:30:45;;;;;;;0.70;0.70;;;;;;;;;;5025102;28;20197;-57
2023/04/11 08:33:11;;;;;;;1.00;1.00;;;;;;;;;;5025098;28;20226;-57
2023/04/11 08:35:41;;;;;;;1.30;1.30;;;;;;;;;;5016986;28;20677;-56
2023/04/11 08:38:07;;;;;;;1.30;1.30;;;;;;;;;;5025044;28;20563;-56
2023/04/11 08:40:33;;;;;;;1.30;1.30;;;;;;;;;;5023039;28;20185;-56
2023/04/11 08:42:59;;;;;;;1.30;1.30;;;;;;;;;;5004780;28;20608;-55
2023/04/11 08:45:25;;;;;;;1.30;1.30;;;;;;;;;;5021663;28;20194;-55
2023/04/11 08:47:51;;;;;;;1.40;1.40;;;;;;;;;;5025765;28;20196;-56
2023/04/11 08:50:17;;;;;;;1.50;1.50;;;;;;;;;;5023325;28;20322;-55
2023/04/11 08:52:43;;;;;;;1.40;1.40;;;;;;;;;;5024358;28;20192;-56
2023/04/11 08:55:09;;;;;;;1.60;1.60;;;;;;;;;;5019372;28;20209;-55
2023/04/11 08:57:37;;;;;;;1.50;1.50;;;;;;;;;;5018330;28;20197;-55
2023/04/11 09:00:17;;;;;;;1.40;1.40;;;;;;;;;;5021193;28;20492;-56
2023/04/11 09:02:56;;;;;;;1.73;1.70;;;;;;;;;;5023024;28;20284;-56
2023/04/11 09:05:26;;;;;;;1.40;1.40;;;;;;;;;;5022342;28;20277;-55
2023/04/11 09:07:52;;;;;;;1.60;1.60;;;;;;;;;;5007205;28;20642;-55
2023/04/11 09:10:19;;;;;;;1.40;1.40;;;;;;;;;;5025802;28;20691;-55
2023/04/11 09:12:45;;;;;;;1.50;1.50;;;;;;;;;;5022991;28;20276;-56
2023/04/11 09:15:17;;;;;;;1.30;1.30;;;;;;;;;;5022979;28;20270;-56
2023/04/11 09:17:43;;;;;;;1.40;1.40;;;;;;;;;;5023897;28;20200;-55
2023/04/11 09:20:19;;;;;;;1.50;1.50;;;;;;;;;;5023728;28;20181;-57
2023/04/11 09:22:45;;;;;;;1.38;1.38;;;;;;;;;;5022073;28;20200;-56
2023/04/11 09:25:11;;;;;;;1.20;1.20;;;;;;;;;;5005932;28;20645;-55
2023/04/11 09:27:37;;;;;;;2.10;2.00;;;;;;;;;;5025062;28;20271;-55
2023/04/11 09:30:04;;;;;;;1.90;1.80;;;;;;;;;;5021321;28;20200;-56
2023/04/11 09:32:34;;;;;;;2.30;2.20;;;;;;;;;;5020422;28;20289;-56
2023/04/11 09:35:17;;;;;;;2.60;2.50;;;;;;;;;;5023426;28;20252;-56
2023/04/11 09:37:44;;;;;;;2.53;2.42;;;;;;;;;;5024009;28;20243;-56
2023/04/11 09:40:10;;;;;;;2.50;2.40;;;;;;;;;;5024572;28;20192;-56
2023/04/11 09:42:37;;;;;;;2.33;2.22;;;;;;;;;;5022454;28;20191;-56
2023/04/11 09:45:03;;;;;;;1.50;1.50;;;;;;;;;;5023448;28;20219;-56
2023/04/11 09:47:32;;;;;;;1.30;1.30;;;;;;;;;;5023080;28;20185;-56
2023/04/11 09:49:59;;;;;;;1.30;1.30;;;;;;;;;;5024219;28;20188;-55
2023/04/11 09:52:26;;;;;;;1.48;1.48;;;;;;;;;;5018185;28;20280;-56
2023/04/11 09:54:52;;;;;;;1.30;1.30;;;;;;;;;;5022651;28;20761;-56
2023/04/11 09:57:18;;;;;;;1.30;1.30;;;;;;;;;;5021574;28;20262;-56
2023/04/11 09:59:44;;;;;;;1.27;1.27;;;;;;;;;;5006987;28;20185;-55
2023/04/11 10:02:10;;;;;;;1.20;1.20;;;;;;;;;;5008965;28;20188;-56
2023/04/11 10:04:37;;;;;;;1.30;1.30;;;;;;;;;;5023893;28;20220;-56
2023/04/11 10:07:06;;;;;;;1.20;1.20;;;;;;;;;;5023564;28;20189;-55
2023/04/11 10:09:32;;;;;;;1.30;1.30;;;;;;;;;;5005634;28;20392;-55
2023/04/11 10:11:58;;;;;;;1.10;1.10;;;;;;;;;;5006942;28;20258;-55
2023/04/11 10:14:36;;;;;;;1.10;1.10;;;;;;;;;;5022009;28;20236;-56
2023/04/11 10:17:12;;;;;;;1.05;1.05;;;;;;;;;;5021251;28;20180;-56
2023/04/11 10:19:38;;;;;;;1.10;1.10;;;;;;;;;;5020255;28;20669;-56
2023/04/11 10:22:04;;;;;;;1.10;1.10;;;;;;;;;;5020647;28;20188;-55
2023/04/11 10:24:30;;;;;;;1.10;1.10;;;;;;;;;;5014777;28;20198;-56
2023/04/11 10:26:58;;;;;;;1.10;1.10;;;;;;;;;;5022140;28;20676;-56
2023/04/11 10:32:14;;;;;;;1.00;1.00;;;;;;;;;;5018340;28;20185;-55
2023/04/11 10:34:50;;;;;;;1.00;1.00;;;;;;;;;;5020829;28;20307;-56
2023/04/11 10:37:34;;;;;;;1.00;1.00;;;;;;;;;;5004215;28;20189;-55
2023/04/11 10:40:00;;;;;;;1.00;1.00;;;;;;;;;;5030535;28;20181;-56
2023/04/11 10:42:26;;;;;;;1.02;1.02;;;;;;;;;;5029072;28;20272;-56
2023/04/11 10:45:20;;;;;;;1.00;1.00;;;;;;;;;;5029141;28;20189;-56
2023/04/11 10:47:55;;;;;;;1.00;1.00;;;;;;;;;;5024463;28;20215;-56
2023/04/11 10:50:21;;;;;;;0.95;0.95;;;;;;;;;;5024514;28;20196;-56
2023/04/11 10:52:47;;;;;;;1.00;1.00;;;;;;;;;;5025975;28;20201;-56
2023/04/11 10:55:15;;;;;;;1.00;1.00;;;;;;;;;;5027411;28;20562;-56
2023/04/11 10:58:00;;;;;;;1.00;1.00;;;;;;;;;;5025314;28;20188;-56
2023/04/11 11:00:26;;;;;;;0.90;0.90;;;;;;;;;;5025514;28;20661;-61
2023/04/11 11:02:52;;;;;;;0.90;0.90;;;;;;;;;;5029081;28;20193;-57
2023/04/11 11:05:19;;;;;;;1.00;1.00;;;;;;;;;;5024384;28;20771;-56
2023/04/11 11:07:46;;;;;;;1.00;1.00;;;;;;;;;;5025359;28;20197;-54
2023/04/11 11:10:12;;;;;;;1.00;1.00;;;;;;;;;;5026923;28;20185;-56
2023/04/11 11:12:38;;;;;;;0.98;0.98;;;;;;;;;;5025000;28;20196;-56
2023/04/11 11:15:12;;;;;;;0.90;0.90;;;;;;;;;;5027914;28;20276;-57
2023/04/11 11:17:38;;;;;;;1.00;1.00;;;;;;;;;;5045957;28;20553;-57
2023/04/11 11:20:13;;;;;;;1.00;1.00;;;;;;;;;;5027496;28;20188;-56
2023/04/11 11:22:39;;;;;;;0.90;0.90;;;;;;;;;;5043891;28;20184;-57
2023/04/11 11:25:08;;;;;;;1.00;1.00;;;;;;;;;;5045234;28;20204;-57
2023/04/11 11:27:34;;;;;;;1.08;1.08;;;;;;;;;;5042841;28;20641;-56
2023/04/11 11:30:09;;;;;;;1.00;1.00;;;;;;;;;;5044985;28;20200;-57
2023/04/11 11:32:35;;;;;;;0.90;0.90;;;;;;;;;;5044077;28;20179;-58
2023/04/11 11:35:13;;;;;;;0.90;0.90;;;;;;;;;;5044804;28;20298;-57
2023/04/11 11:37:40;;;;;;;0.93;0.93;;;;;;;;;;5045409;28;20391;-57
2023/04/11 11:40:11;;;;;;;1.00;1.00;;;;;;;;;;5044670;28;20562;-56
2023/04/11 11:42:37;;;;;;;1.00;1.00;;;;;;;;;;5046184;28;20180;-56
2023/04/11 11:45:22;;;;;;;1.00;1.00;;;;;;;;;;5027274;28;20675;-57
2023/04/11 11:47:49;;;;;;;0.93;0.93;;;;;;;;;;5044411;28;20200;-56
2023/04/11 11:50:28;;;;;;;0.90;0.90;;;;;;;;;;5044755;28;20172;-56
2023/04/11 11:52:54;;;;;;;0.90;0.90;;;;;;;;;;5041891;28;20559;-56
2023/04/11 11:55:21;;;;;;;1.00;1.00;;;;;;;;;;5043606;28;20191;-56
2023/04/11 11:57:47;;;;;;;0.90;0.90;;;;;;;;;;5043706;28;20192;-56
2023/04/11 12:00:15;;;;;;;0.90;0.90;;;;;;;;;;5042747;28;20688;-56
2023/04/11 12:02:41;;;;;;;0.90;0.90;;;;;;;;;;5041429;28;20185;-56
2023/04/11 12:05:09;;;;;;;0.88;0.88;;;;;;;;;;5044429;28;20704;-56
2023/04/11 12:07:38;;;;;;;0.90;0.90;;;;;;;;;;5029523;28;20176;-59
2023/04/11 12:10:10;;;;;;;0.90;0.90;;;;;;;;;;5045069;28;20196;-56
2023/04/11 12:12:39;;;;;;;0.98;0.98;;;;;;;;;;5033910;28;20307;-57
2023/04/11 12:15:12;;;;;;;0.90;0.90;;;;;;;;;;5021669;28;20224;-56
2023/04/11 12:17:38;;;;;;;0.80;0.80;;;;;;;;;;5025017;28;20193;-56
2023/04/11 12:20:07;;;;;;;0.90;0.90;;;;;;;;;;5022457;28;20196;-55
2023/04/11 12:22:36;;;;;;;0.80;0.80;;;;;;;;;;5023975;28;20189;-56
2023/04/11 12:25:05;;;;;;;0.90;0.90;;;;;;;;;;5024313;28;20647;-56
2023/04/11 12:27:34;;;;;;;0.80;0.80;;;;;;;;;;5024543;28;21129;-55
2023/04/11 12:30:00;;;;;;;0.80;0.80;;;;;;;;;;5023025;28;20197;-56
2023/04/11 12:32:26;;;;;;;0.85;0.85;;;;;;;;;;5022982;28;20778;-56
2023/04/11 12:34:53;;;;;;;0.80;0.80;;;;;;;;;;5026305;28;20719;-56
2023/04/11 12:37:19;;;;;;;0.80;0.80;;;;;;;;;;5024136;28;21022;-56
2023/04/11 12:39:45;;;;;;;0.70;0.70;;;;;;;;;;5022282;28;20185;-56
2023/04/11 12:42:11;;;;;;;0.75;0.75;;;;;;;;;;5024226;28;20200;-57
2023/04/11 12:44:37;;;;;;;0.73;0.73;;;;;;;;;;5025851;28;20188;-56
2023/04/11 12:47:03;;;;;;;0.70;0.70;;;;;;;;;;5021816;28;20567;-56
2023/04/11 12:49:29;;;;;;;0.70;0.70;;;;;;;;;;5024765;28;20335;-56
2023/04/11 12:51:55;;;;;;;0.80;0.80;;;;;;;;;;5022799;28;20192;-56
2023/04/11 12:54:21;;;;;;;0.75;0.75;;;;;;;;;;5026218;28;20348;-56
2023/04/11 12:56:47;;;;;;;0.70;0.70;;;;;;;;;;5006640;28;20220;-56
2023/04/11 12:59:13;;;;;;;0.73;0.73;;;;;;;;;;5020535;28;20192;-56
2023/04/11 13:01:39;;;;;;;0.73;0.73;;;;;;;;;;5024783;28;20642;-56
2023/04/11 13:04:05;;;;;;;1.00;1.00;;;;;;;;;;5021591;28;20653;-56
2023/04/11 13:06:31;;;;;;;0.73;0.73;;;;;;;;;;5024780;28;20232;-56
2023/04/11 13:08:57;;;;;;;0.73;0.73;;;;;;;;;;5022392;28;20197;-56
2023/04/11 13:11:23;;;;;;;0.77;0.77;;;;;;;;;;5021857;28;20242;-56
2023/04/11 13:13:50;;;;;;;0.80;0.80;;;;;;;;;;5032223;28;20587;-57
2023/04/11 13:16:16;;;;;;;0.80;0.80;;;;;;;;;;5041207;28;20581;-57
2023/04/11 13:18:42;;;;;;;0.70;0.70;;;;;;;;;;5040806;28;20177;-59
2023/04/11 13:21:08;;;;;;;0.70;0.70;;;;;;;;;;5038521;28;20204;-57
2023/04/11 13:23:34;;;;;;;1.23;1.23;;;;;;;;;;5042765;28;20189;-57
2023/04/11 13:26:00;;;;;;;1.20;1.20;;;;;;;;;;5018766;28;20184;-56
2023/04/11 13:28:27;;;;;;;1.30;1.30;;;;;;;;;;5040731;28;20246;-56
2023/04/11 13:30:53;;;;;;;1.20;1.20;;;;;;;;;;5040727;28;20192;-56
2023/04/11 13:33:19;;;;;;;1.27;1.27;;;;;;;;;;5039712;28;20277;-56
2023/04/11 13:35:45;;;;;;;1.20;1.20;;;;;;;;;;5039338;28;20556;-56
2023/04/11 13:38:11;;;;;;;1.30;1.30;;;;;;;;;;5040341;28;20173;-56
2023/04/11 13:40:38;;;;;;;1.20;1.20;;;;;;;;;;5041083;28;20191;-56
2023/04/11 13:43:04;;;;;;;1.25;1.25;;;;;;;;;;5040536;28;20401;-56
2023/04/11 13:45:30;;;;;;;1.40;1.40;;;;;;;;;;5045491;28;20651;-56
2023/04/11 13:47:56;;;;;;;1.20;1.20;;;;;;;;;;5041456;28;20176;-57
2023/04/11 13:50:23;;;;;;;1.30;1.30;;;;;;;;;;5042337;28;20279;-56
2023/04/11 13:52:49;;;;;;;1.33;1.33;;;;;;;;;;5034467;28;20231;-56
2023/04/11 13:55:15;;;;;;;1.40;1.40;;;;;;;;;;5038207;28;20688;-56
2023/04/11 13:57:41;;;;;;;1.40;1.40;;;;;;;;;;5035284;28;20213;-60
2023/04/11 14:00:10;;;;;;;1.50;1.50;;;;;;;;;;5042322;28;20196;-55
2023/04/11 14:02:36;;;;;;;1.50;1.50;;;;;;;;;;5041664;28;20613;-56
2023/04/11 14:05:02;;;;;;;1.40;1.40;;;;;;;;;;5033697;28;20201;-56
2023/04/11 14:07:28;;;;;;;1.50;1.50;;;;;;;;;;5041188;28;20253;-56
2023/04/11 14:09:54;;;;;;;1.58;1.58;;;;;;;;;;5042013;28;20188;-56
2023/04/11 14:12:20;;;;;;;1.40;1.40;;;;;;;;;;5037980;28;20203;-56
2023/04/11 14:14:46;;;;;;;1.35;1.35;;;;;;;;;;5020843;28;20484;-56
2023/04/11 14:17:12;;;;;;;1.30;1.30;;;;;;;;;;5022519;28;20182;-58
2023/04/11 14:19:38;;;;;;;1.30;1.30;;;;;;;;;;5022776;28;20212;-56
2023/04/11 14:22:04;;;;;;;1.30;1.30;;;;;;;;;;5022678;28;20193;-56
2023/04/11 14:24:30;;;;;;;1.40;1.40;;;;;;;;;;5023073;28;20189;-56
2023/04/11 14:26:56;;;;;;;1.33;1.33;;;;;;;;;;5013844;28;21933;-56
2023/04/11 14:29:22;;;;;;;1.40;1.40;;;;;;;;;;5021809;28;20667;-56
2023/04/11 14:31:48;;;;;;;1.40;1.40;;;;;;;;;;5020159;28;20205;-62
2023/04/11 14:34:14;;;;;;;1.30;1.30;;;;;;;;;;5023259;28;20213;-56
2023/04/11 14:36:40;;;;;;;1.42;1.42;;;;;;;;;;5020787;28;20223;-57
2023/04/11 14:39:07;;;;;;;1.50;1.50;;;;;;;;;;5021909;28;20835;-57
2023/04/11 14:41:32;;;;;;;1.50;1.50;;;;;;;;;;5020423;28;20425;-58
2023/04/11 14:43:58;;;;;;;1.40;1.40;;;;;;;;;;5024358;28;20714;-62